createdAt,value
2018-11-03T00:00:59.522Z,985.77
2018-11-03T00:01:59.639Z,985.74
2018-11-03T00:02:59.542Z,985.79
2018-11-03T00:03:59.506Z,985.81
2018-11-03T00:04:59.510Z,985.84
2018-11-03T00:05:59.505Z,985.83
2018-11-03T00:06:59.498Z,985.81
2018-11-03T00:07:59.522Z,985.84
2018-11-03T00:08:59.492Z,985.81
2018-11-03T00:09:59.490Z,985.78
2018-11-03T00:10:59.480Z,985.76
2018-11-03T00:11:59.480Z,985.69
2018-11-03T00:12:59.503Z,985.73
2018-11-03T00:13:59.468Z,985.72
2018-11-03T00:14:59.466Z,985.77
2018-11-03T00:15:59.463Z,985.80
2018-11-03T00:16:59.460Z,985.83
2018-11-03T00:17:59.491Z,985.87
2018-11-03T00:18:59.451Z,985.89
2018-11-03T00:19:59.471Z,985.84
2018-11-03T00:20:59.447Z,985.87
2018-11-03T00:21:59.443Z,985.87
2018-11-03T00:22:59.467Z,985.87
2018-11-03T00:23:59.460Z,985.90
2018-11-03T00:24:59.427Z,985.90
2018-11-03T00:25:59.424Z,985.90
2018-11-03T00:26:59.421Z,985.90
2018-11-03T00:27:59.447Z,985.90
2018-11-03T00:28:59.413Z,985.89
2018-11-03T00:29:59.415Z,985.90
2018-11-03T00:30:59.408Z,985.90
2018-11-03T00:31:59.404Z,985.97
2018-11-03T00:32:59.430Z,986.00
2018-11-03T00:33:59.392Z,985.97
2018-11-03T00:34:59.392Z,985.99
2018-11-03T00:35:59.388Z,985.99
2018-11-03T00:36:59.382Z,985.99
2018-11-03T00:37:59.417Z,985.99
2018-11-03T00:38:59.373Z,986.01
2018-11-03T00:39:59.375Z,985.98
2018-11-03T00:40:59.365Z,986.00
2018-11-03T00:42:00.945Z,986.03
2018-11-03T00:42:59.397Z,985.98
2018-11-03T00:43:59.359Z,985.99
2018-11-03T00:44:59.358Z,985.93
2018-11-03T00:45:59.351Z,985.88
2018-11-03T00:46:59.349Z,985.85
2018-11-03T00:47:59.372Z,985.83
2018-11-03T00:48:59.336Z,985.80
2018-11-03T00:49:59.339Z,985.77
2018-11-03T00:50:59.333Z,985.81
2018-11-03T00:51:59.330Z,985.80
2018-11-03T00:52:59.353Z,985.79
2018-11-03T00:53:59.317Z,985.79
2018-11-03T00:54:59.320Z,985.75
2018-11-03T00:55:59.312Z,985.75
2018-11-03T00:56:59.306Z,985.70
2018-11-03T00:57:59.333Z,985.68
2018-11-03T00:58:59.297Z,985.69
2018-11-03T00:59:59.300Z,985.68
2018-11-03T01:00:59.294Z,985.70
2018-11-03T01:01:59.289Z,985.73
2018-11-03T01:02:59.320Z,985.67
2018-11-03T01:03:59.278Z,985.63
2018-11-03T01:04:59.277Z,985.63
2018-11-03T01:05:59.269Z,985.63
2018-11-03T01:06:59.273Z,985.61
2018-11-03T01:07:59.293Z,985.64
2018-11-03T01:08:59.266Z,985.63
2018-11-03T01:09:59.259Z,985.66
2018-11-03T01:10:59.260Z,985.68
2018-11-03T01:11:59.252Z,985.68
2018-11-03T01:12:59.277Z,985.69
2018-11-03T01:13:59.262Z,985.63
2018-11-03T01:14:59.242Z,985.63
2018-11-03T01:15:59.236Z,985.63
2018-11-03T01:16:59.233Z,985.60
2018-11-03T01:17:59.258Z,985.58
2018-11-03T01:18:59.222Z,985.58
2018-11-03T01:19:59.225Z,985.57
2018-11-03T01:20:59.219Z,985.64
2018-11-03T01:21:59.213Z,985.58
2018-11-03T01:22:59.239Z,985.55
2018-11-03T01:23:59.211Z,985.51
2018-11-03T01:24:59.201Z,985.46
2018-11-03T01:25:59.198Z,985.46
2018-11-03T01:26:59.195Z,985.39
2018-11-03T01:27:59.215Z,985.41
2018-11-03T01:28:59.187Z,985.37
2018-11-03T01:29:59.186Z,985.43
2018-11-03T01:30:59.179Z,985.47
2018-11-03T01:31:59.176Z,985.47
2018-11-03T01:32:59.198Z,985.44
2018-11-03T01:33:59.167Z,985.47
2018-11-03T01:34:59.162Z,985.50
2018-11-03T01:35:59.159Z,985.51
2018-11-03T01:36:59.154Z,985.51
2018-11-03T01:37:59.214Z,985.48
2018-11-03T01:38:59.148Z,985.49
2018-11-03T01:39:59.141Z,985.58
2018-11-03T01:40:59.138Z,985.59
2018-11-03T01:41:59.139Z,985.58
2018-11-03T01:42:59.166Z,985.59
2018-11-03T01:43:59.123Z,985.57
2018-11-03T01:44:59.120Z,985.59
2018-11-03T01:45:59.119Z,985.60
2018-11-03T01:46:59.121Z,985.61
2018-11-03T01:47:59.136Z,985.63
2018-11-03T01:48:59.107Z,985.66
2018-11-03T01:49:59.103Z,985.67
2018-11-03T01:50:59.097Z,985.68
2018-11-03T01:51:59.100Z,985.68
2018-11-03T01:52:59.120Z,985.69
2018-11-03T01:53:59.087Z,985.72
2018-11-03T01:54:59.085Z,985.71
2018-11-03T01:55:59.075Z,985.71
2018-11-03T01:56:59.077Z,985.72
2018-11-03T01:57:59.099Z,985.73
2018-11-03T01:58:59.067Z,985.70
2018-11-03T01:59:59.064Z,985.71
2018-11-03T02:00:59.066Z,985.72
2018-11-03T02:01:59.056Z,985.71
2018-11-03T02:02:59.078Z,985.72
2018-11-03T02:03:59.048Z,985.77
2018-11-03T02:04:59.044Z,985.71
2018-11-03T02:05:59.042Z,985.75
2018-11-03T02:06:59.036Z,985.73
2018-11-03T02:07:59.060Z,985.69
2018-11-03T02:08:59.029Z,985.70
2018-11-03T02:09:59.025Z,985.66
2018-11-03T02:10:59.018Z,985.67
2018-11-03T02:11:59.019Z,985.66
2018-11-03T02:12:59.041Z,985.70
2018-11-03T02:13:59.012Z,985.66
2018-11-03T02:14:59.004Z,985.67
2018-11-03T02:15:58.998Z,985.68
2018-11-03T02:16:58.993Z,985.67
2018-11-03T02:17:59.013Z,985.64
2018-11-03T02:18:58.984Z,985.66
2018-11-03T02:19:58.981Z,985.65
2018-11-03T02:20:58.990Z,985.66
2018-11-03T02:21:58.971Z,985.68
2018-11-03T02:22:59.001Z,985.66
2018-11-03T02:23:58.965Z,985.73
2018-11-03T02:24:58.957Z,985.74
2018-11-03T02:25:58.958Z,985.73
2018-11-03T02:26:58.953Z,985.75
2018-11-03T02:27:58.977Z,985.77
2018-11-03T02:28:58.946Z,985.77
2018-11-03T02:29:58.941Z,985.78
2018-11-03T02:30:58.941Z,985.78
2018-11-03T02:31:58.961Z,985.78
2018-11-03T02:32:58.929Z,985.79
2018-11-03T02:33:58.961Z,985.81
2018-11-03T02:34:58.968Z,985.82
2018-11-03T02:35:58.921Z,985.81
2018-11-03T02:36:58.908Z,985.81
2018-11-03T02:37:58.937Z,985.78
2018-11-03T02:38:58.905Z,985.76
2018-11-03T02:39:58.908Z,985.74
2018-11-03T02:40:58.903Z,985.78
2018-11-03T02:41:58.895Z,985.81
2018-11-03T02:42:58.915Z,985.84
2018-11-03T02:43:58.881Z,985.86
2018-11-03T02:44:58.880Z,985.87
2018-11-03T02:45:58.876Z,985.88
2018-11-03T02:46:58.867Z,985.86
2018-11-03T02:47:58.896Z,985.82
2018-11-03T02:48:58.861Z,985.82
2018-11-03T02:49:58.859Z,985.82
2018-11-03T02:50:58.853Z,985.81
2018-11-03T02:51:58.846Z,985.85
2018-11-03T02:52:58.879Z,985.81
2018-11-03T02:53:58.843Z,985.82
2018-11-03T02:54:58.838Z,985.84
2018-11-03T02:55:58.834Z,985.87
2018-11-03T02:56:58.830Z,985.84
2018-11-03T02:57:58.855Z,985.85
2018-11-03T02:58:58.820Z,985.83
2018-11-03T02:59:58.819Z,985.85
2018-11-03T03:00:58.812Z,985.81
2018-11-03T03:01:58.811Z,985.86
2018-11-03T03:02:58.839Z,985.84
2018-11-03T03:03:58.798Z,985.85
2018-11-03T03:04:58.801Z,985.86
2018-11-03T03:05:58.795Z,985.86
2018-11-03T03:06:58.788Z,985.84
2018-11-03T03:07:58.814Z,985.90
2018-11-03T03:08:58.780Z,985.88
2018-11-03T03:09:58.783Z,985.86
2018-11-03T03:10:58.775Z,985.88
2018-11-03T03:11:58.771Z,985.88
2018-11-03T03:12:58.801Z,985.93
2018-11-03T03:13:58.762Z,985.93
2018-11-03T03:14:58.763Z,985.95
2018-11-03T03:15:58.749Z,985.97
2018-11-03T03:16:58.750Z,985.95
2018-11-03T03:17:58.771Z,986.00
2018-11-03T03:18:58.746Z,985.98
2018-11-03T03:19:58.734Z,986.01
2018-11-03T03:20:58.735Z,986.00
2018-11-03T03:21:58.730Z,985.99
2018-11-03T03:22:58.751Z,986.01
2018-11-03T03:23:58.716Z,986.01
2018-11-03T03:24:58.715Z,986.02
2018-11-03T03:25:58.716Z,986.07
2018-11-03T03:26:58.707Z,986.13
2018-11-03T03:27:58.734Z,986.14
2018-11-03T03:28:58.789Z,986.13
2018-11-03T03:29:58.696Z,986.10
2018-11-03T03:30:58.757Z,986.13
2018-11-03T03:31:58.687Z,986.17
2018-11-03T03:32:58.712Z,986.14
2018-11-03T03:33:58.679Z,986.14
2018-11-03T03:34:58.674Z,986.16
2018-11-03T03:35:58.673Z,986.13
2018-11-03T03:36:58.776Z,986.17
2018-11-03T03:37:58.663Z,986.16
2018-11-03T03:38:58.661Z,986.17
2018-11-03T03:39:58.659Z,986.19
2018-11-03T03:40:58.648Z,986.20
2018-11-03T03:41:58.784Z,986.21
2018-11-03T03:42:58.671Z,986.21
2018-11-03T03:43:58.636Z,986.21
2018-11-03T03:44:58.631Z,986.26
2018-11-03T03:45:58.632Z,986.23
2018-11-03T03:46:58.657Z,986.24
2018-11-03T03:47:58.620Z,986.22
2018-11-03T03:48:58.649Z,986.21
2018-11-03T03:49:58.608Z,986.25
2018-11-03T03:50:58.609Z,986.22
2018-11-03T03:51:58.632Z,986.21
2018-11-03T03:52:58.629Z,986.20
2018-11-03T03:53:58.597Z,986.23
2018-11-03T03:54:58.589Z,986.21
2018-11-03T03:55:58.593Z,986.22
2018-11-03T03:56:58.583Z,986.25
2018-11-03T03:57:58.610Z,986.23
2018-11-03T03:58:58.576Z,986.19
2018-11-03T03:59:58.569Z,986.22
2018-11-03T04:00:58.565Z,986.19
2018-11-03T04:01:58.556Z,986.18
2018-11-03T04:02:58.614Z,986.16
2018-11-03T04:03:58.554Z,986.17
2018-11-03T04:04:58.550Z,986.15
2018-11-03T04:05:58.544Z,986.14
2018-11-03T04:06:58.538Z,986.14
2018-11-03T04:07:58.567Z,986.15
2018-11-03T04:08:58.533Z,986.13
2018-11-03T04:09:58.529Z,986.18
2018-11-03T04:10:58.525Z,986.18
2018-11-03T04:11:58.517Z,986.18
2018-11-03T04:12:58.547Z,986.16
2018-11-03T04:13:58.509Z,986.19
2018-11-03T04:14:58.510Z,986.20
2018-11-03T04:15:58.505Z,986.21
2018-11-03T04:16:58.498Z,986.20
2018-11-03T04:17:58.529Z,986.19
2018-11-03T04:18:58.493Z,986.21
2018-11-03T04:19:58.485Z,986.21
2018-11-03T04:20:58.481Z,986.21
2018-11-03T04:21:58.477Z,986.22
2018-11-03T04:22:58.506Z,986.19
2018-11-03T04:23:58.493Z,986.19
2018-11-03T04:24:58.465Z,986.17
2018-11-03T04:25:58.462Z,986.18
2018-11-03T04:26:58.458Z,986.20
2018-11-03T04:27:58.460Z,986.25
2018-11-03T04:28:58.487Z,986.18
2018-11-03T04:29:58.447Z,986.19
2018-11-03T04:30:58.439Z,986.19
2018-11-03T04:31:58.441Z,986.16
2018-11-03T04:32:58.429Z,986.23
2018-11-03T04:33:58.457Z,986.22
2018-11-03T04:34:58.422Z,986.23
2018-11-03T04:35:58.423Z,986.25
2018-11-03T04:36:58.452Z,986.20
2018-11-03T04:37:58.448Z,986.17
2018-11-03T04:38:58.409Z,986.22
2018-11-03T04:39:58.405Z,986.23
2018-11-03T04:40:58.398Z,986.20
2018-11-03T04:41:58.395Z,986.26
2018-11-03T04:42:58.419Z,986.29
2018-11-03T04:43:58.389Z,986.30
2018-11-03T04:44:58.383Z,986.31
2018-11-03T04:45:58.381Z,986.34
2018-11-03T04:46:58.376Z,986.37
2018-11-03T04:47:58.390Z,986.43
2018-11-03T04:48:58.365Z,986.49
2018-11-03T04:49:58.355Z,986.50
2018-11-03T04:50:58.363Z,986.49
2018-11-03T04:51:58.351Z,986.49
2018-11-03T04:52:58.383Z,986.51
2018-11-03T04:53:58.372Z,986.50
2018-11-03T04:54:58.382Z,986.52
2018-11-03T04:55:58.338Z,986.56
2018-11-03T04:56:58.330Z,986.57
2018-11-03T04:57:58.326Z,986.53
2018-11-03T04:58:58.351Z,986.57
2018-11-03T04:59:58.318Z,986.53
2018-11-03T05:00:58.317Z,986.54
2018-11-03T05:01:58.306Z,986.56
2018-11-03T05:02:58.308Z,986.56
2018-11-03T05:03:58.355Z,986.59
2018-11-03T05:04:58.295Z,986.54
2018-11-03T05:05:58.291Z,986.55
2018-11-03T05:06:58.284Z,986.55
2018-11-03T05:07:58.283Z,986.56
2018-11-03T05:08:58.307Z,986.55
2018-11-03T05:09:58.338Z,986.56
2018-11-03T05:10:58.275Z,986.55
2018-11-03T05:11:58.271Z,986.54
2018-11-03T05:12:58.263Z,986.57
2018-11-03T05:13:58.289Z,986.56
2018-11-03T05:14:58.257Z,986.57
2018-11-03T05:15:58.247Z,986.59
2018-11-03T05:16:58.244Z,986.57
2018-11-03T05:17:58.244Z,986.61
2018-11-03T05:18:58.262Z,986.67
2018-11-03T05:19:58.232Z,986.67
2018-11-03T05:20:58.250Z,986.71
2018-11-03T05:21:58.225Z,986.68
2018-11-03T05:22:58.247Z,986.66
2018-11-03T05:23:58.220Z,986.65
2018-11-03T05:24:58.212Z,986.66
2018-11-03T05:25:58.208Z,986.67
2018-11-03T05:26:58.204Z,986.66
2018-11-03T05:27:58.228Z,986.65
2018-11-03T05:28:58.196Z,986.65
2018-11-03T05:29:58.203Z,986.65
2018-11-03T05:30:58.209Z,986.66
2018-11-03T05:31:58.191Z,986.65
2018-11-03T05:32:58.229Z,986.61
2018-11-03T05:33:58.210Z,986.59
2018-11-03T05:34:58.171Z,986.57
2018-11-03T05:35:58.164Z,986.57
2018-11-03T05:36:58.160Z,986.58
2018-11-03T05:37:58.185Z,986.56
2018-11-03T05:38:58.196Z,986.52
2018-11-03T05:39:58.150Z,986.55
2018-11-03T05:40:58.872Z,986.57
2018-11-03T05:41:58.141Z,986.55
2018-11-03T05:42:58.164Z,986.59
2018-11-03T05:43:58.136Z,986.59
2018-11-03T05:44:58.128Z,986.57
2018-11-03T05:45:58.125Z,986.55
2018-11-03T05:46:58.120Z,986.51
2018-11-03T05:47:58.145Z,986.51
2018-11-03T05:48:58.118Z,986.54
2018-11-03T05:49:58.110Z,986.50
2018-11-03T05:50:58.105Z,986.50
2018-11-03T05:51:58.105Z,986.48
2018-11-03T05:52:58.124Z,986.45
2018-11-03T05:53:58.099Z,986.44
2018-11-03T05:54:58.095Z,986.40
2018-11-03T05:55:58.085Z,986.40
2018-11-03T05:56:58.078Z,986.39
2018-11-03T05:57:58.103Z,986.38
2018-11-03T05:58:58.131Z,986.36
2018-11-03T05:59:58.061Z,986.35
2018-11-03T06:00:58.066Z,986.36
2018-11-03T06:01:58.064Z,986.31
2018-11-03T06:02:58.082Z,986.31
2018-11-03T06:03:58.051Z,986.32
2018-11-03T06:04:58.043Z,986.35
2018-11-03T06:05:58.066Z,986.33
2018-11-03T06:06:58.038Z,986.34
2018-11-03T06:07:58.074Z,986.37
2018-11-03T06:08:58.082Z,986.38
2018-11-03T06:09:58.025Z,986.39
2018-11-03T06:10:58.050Z,986.40
2018-11-03T06:11:58.022Z,986.44
2018-11-03T06:12:58.081Z,986.49
2018-11-03T06:13:58.010Z,986.47
2018-11-03T06:14:58.006Z,986.49
2018-11-03T06:15:57.999Z,986.48
2018-11-03T06:16:57.998Z,986.50
2018-11-03T06:17:58.023Z,986.52
2018-11-03T06:18:57.992Z,986.50
2018-11-03T06:19:57.997Z,986.54
2018-11-03T06:20:57.980Z,986.54
2018-11-03T06:21:57.997Z,986.54
2018-11-03T06:22:58.045Z,986.59
2018-11-03T06:23:57.967Z,986.57
2018-11-03T06:24:57.964Z,986.55
2018-11-03T06:25:57.958Z,986.58
2018-11-03T06:26:57.956Z,986.57
2018-11-03T06:27:58.044Z,986.53
2018-11-03T06:28:57.972Z,986.57
2018-11-03T06:29:57.948Z,986.61
2018-11-03T06:30:57.940Z,986.64
2018-11-03T06:31:57.935Z,986.68
2018-11-03T06:32:57.963Z,986.67
2018-11-03T06:33:58.015Z,986.70
2018-11-03T06:34:57.949Z,986.67
2018-11-03T06:35:57.918Z,986.72
2018-11-03T06:36:57.916Z,986.77
2018-11-03T06:37:57.919Z,986.81
2018-11-03T06:38:57.961Z,986.83
2018-11-03T06:39:57.908Z,986.86
2018-11-03T06:40:57.900Z,986.83
2018-11-03T06:41:57.896Z,986.82
2018-11-03T06:42:57.927Z,986.83
2018-11-03T06:43:57.915Z,986.84
2018-11-03T06:44:57.882Z,986.84
2018-11-03T06:45:57.906Z,986.85
2018-11-03T06:46:57.886Z,986.87
2018-11-03T06:47:57.908Z,986.83
2018-11-03T06:48:57.899Z,986.84
2018-11-03T06:49:57.869Z,986.84
2018-11-03T06:50:57.864Z,986.87
2018-11-03T06:51:57.878Z,986.87
2018-11-03T06:52:57.876Z,986.90
2018-11-03T06:53:57.879Z,986.92
2018-11-03T06:54:57.882Z,986.97
2018-11-03T06:55:57.846Z,987.00
2018-11-03T06:56:57.839Z,987.01
2018-11-03T06:57:57.864Z,987.01
2018-11-03T06:58:57.828Z,986.99
2018-11-03T06:59:57.857Z,986.98
2018-11-03T07:00:57.820Z,986.97
2018-11-03T07:01:57.819Z,986.97
2018-11-03T07:02:57.815Z,987.02
2018-11-03T07:03:57.840Z,987.01
2018-11-03T07:04:57.818Z,987.08
2018-11-03T07:05:57.805Z,987.06
2018-11-03T07:06:57.801Z,987.09
2018-11-03T07:07:57.796Z,987.12
2018-11-03T07:08:57.817Z,987.13
2018-11-03T07:09:57.788Z,987.18
2018-11-03T07:10:57.786Z,987.19
2018-11-03T07:11:57.837Z,987.20
2018-11-03T07:12:57.930Z,987.21
2018-11-03T07:13:57.803Z,987.24
2018-11-03T07:14:57.774Z,987.28
2018-11-03T07:15:57.764Z,987.26
2018-11-03T07:16:57.767Z,987.30
2018-11-03T07:17:57.761Z,987.31
2018-11-03T07:18:57.784Z,987.33
2018-11-03T07:19:57.762Z,987.35
2018-11-03T07:20:57.756Z,987.34
2018-11-03T07:21:57.744Z,987.36
2018-11-03T07:22:57.741Z,987.40
2018-11-03T07:23:57.767Z,987.37
2018-11-03T07:24:57.736Z,987.40
2018-11-03T07:25:57.734Z,987.36
2018-11-03T07:26:57.732Z,987.34
2018-11-03T07:27:57.725Z,987.28
2018-11-03T07:28:57.750Z,987.31
2018-11-03T07:29:57.716Z,987.33
2018-11-03T07:30:57.714Z,987.31
2018-11-03T07:31:57.713Z,987.26
2018-11-03T07:32:57.711Z,987.33
2018-11-03T07:33:57.738Z,987.30
2018-11-03T07:34:57.700Z,987.31
2018-11-03T07:35:57.705Z,987.33
2018-11-03T07:36:57.696Z,987.35
2018-11-03T07:37:57.694Z,987.37
2018-11-03T07:38:57.718Z,987.31
2018-11-03T07:39:57.680Z,987.35
2018-11-03T07:40:57.761Z,987.39
2018-11-03T07:41:57.677Z,987.43
2018-11-03T07:42:57.671Z,987.40
2018-11-03T07:43:57.704Z,987.39
2018-11-03T07:44:57.665Z,987.40
2018-11-03T07:45:57.662Z,987.44
2018-11-03T07:46:57.662Z,987.40
2018-11-03T07:47:57.722Z,987.42
2018-11-03T07:48:57.813Z,987.48
2018-11-03T07:49:57.664Z,987.44
2018-11-03T07:50:57.648Z,987.43
2018-11-03T07:51:57.641Z,987.41
2018-11-03T07:52:57.641Z,987.38
2018-11-03T07:53:57.669Z,987.40
2018-11-03T07:54:57.638Z,987.40
2018-11-03T07:55:57.632Z,987.40
2018-11-03T07:56:57.629Z,987.38
2018-11-03T07:57:57.622Z,987.40
2018-11-03T07:58:57.647Z,987.36
2018-11-03T07:59:57.619Z,987.36
2018-11-03T08:00:57.619Z,987.29
2018-11-03T08:01:57.615Z,987.36
2018-11-03T08:02:57.609Z,987.37
2018-11-03T08:03:57.631Z,987.35
2018-11-03T08:04:57.629Z,987.37
2018-11-03T08:05:57.594Z,987.38
2018-11-03T08:06:57.598Z,987.41
2018-11-03T08:07:57.594Z,987.47
2018-11-03T08:08:57.616Z,987.45
2018-11-03T08:09:57.617Z,987.45
2018-11-03T08:10:57.587Z,987.52
2018-11-03T08:11:57.602Z,987.52
2018-11-03T08:12:57.578Z,987.50
2018-11-03T08:13:57.578Z,987.52
2018-11-03T08:14:57.603Z,987.51
2018-11-03T08:15:57.569Z,987.52
2018-11-03T08:16:58.378Z,987.48
2018-11-03T08:17:57.571Z,987.48
2018-11-03T08:18:57.563Z,987.45
2018-11-03T08:19:57.587Z,987.42
2018-11-03T08:20:57.556Z,987.49
2018-11-03T08:21:57.555Z,987.50
2018-11-03T08:22:57.554Z,987.48
2018-11-03T08:23:57.592Z,987.46
2018-11-03T08:24:57.575Z,987.42
2018-11-03T08:25:57.543Z,987.40
2018-11-03T08:26:57.538Z,987.46
2018-11-03T08:27:57.578Z,987.47
2018-11-03T08:28:57.535Z,987.46
2018-11-03T08:29:57.570Z,987.48
2018-11-03T08:30:57.524Z,987.48
2018-11-03T08:31:57.527Z,987.47
2018-11-03T08:32:57.523Z,987.43
2018-11-03T08:33:57.544Z,987.40
2018-11-03T08:34:57.547Z,987.41
2018-11-03T08:35:57.515Z,987.45
2018-11-03T08:36:57.519Z,987.45
2018-11-03T08:37:57.515Z,987.48
2018-11-03T08:38:57.506Z,987.44
2018-11-03T08:39:57.539Z,987.50
2018-11-03T08:40:57.500Z,987.50
2018-11-03T08:41:57.502Z,987.54
2018-11-03T08:42:57.500Z,987.53
2018-11-03T08:43:57.495Z,987.50
2018-11-03T08:44:57.524Z,987.46
2018-11-03T08:45:57.494Z,987.48
2018-11-03T08:46:57.491Z,987.49
2018-11-03T08:47:57.546Z,987.43
2018-11-03T08:48:57.515Z,987.42
2018-11-03T08:49:57.515Z,987.45
2018-11-03T08:50:57.481Z,987.46
2018-11-03T08:51:57.483Z,987.52
2018-11-03T08:52:57.476Z,987.52
2018-11-03T08:53:57.471Z,987.51
2018-11-03T08:54:57.500Z,987.45
2018-11-03T08:55:57.473Z,987.43
2018-11-03T08:56:57.468Z,987.41
2018-11-03T08:57:57.472Z,987.35
2018-11-03T08:58:57.496Z,987.39
2018-11-03T08:59:57.606Z,987.35
2018-11-03T09:00:57.460Z,987.34
2018-11-03T09:01:57.467Z,987.38
2018-11-03T09:02:57.494Z,987.35
2018-11-03T09:03:57.491Z,987.34
2018-11-03T09:04:57.460Z,987.38
2018-11-03T09:05:57.485Z,987.38
2018-11-03T09:06:57.508Z,987.36
2018-11-03T09:07:57.454Z,987.38
2018-11-03T09:08:57.448Z,987.38
2018-11-03T09:09:57.468Z,987.35
2018-11-03T09:10:57.446Z,987.39
2018-11-03T09:11:57.437Z,987.41
2018-11-03T09:12:57.438Z,987.42
2018-11-03T09:13:57.467Z,987.43
2018-11-03T09:14:57.450Z,987.44
2018-11-03T09:15:57.464Z,987.41
2018-11-03T09:16:57.497Z,987.42
2018-11-03T09:17:57.651Z,987.43
2018-11-03T09:18:57.488Z,987.49
2018-11-03T09:19:57.531Z,987.41
2018-11-03T09:20:57.447Z,987.40
2018-11-03T09:21:57.525Z,987.35
2018-11-03T09:22:57.419Z,987.39
2018-11-03T09:23:57.421Z,987.42
2018-11-03T09:24:57.445Z,987.43
2018-11-03T09:25:57.417Z,987.47
2018-11-03T09:26:57.424Z,987.42
2018-11-03T09:27:57.411Z,987.40
2018-11-03T09:28:57.410Z,987.41
2018-11-03T09:29:57.443Z,987.38
2018-11-03T09:30:57.410Z,987.42
2018-11-03T09:31:57.611Z,987.41
2018-11-03T09:32:57.406Z,987.46
2018-11-03T09:33:57.405Z,987.37
2018-11-03T09:34:57.429Z,987.38
2018-11-03T09:35:57.401Z,987.36
2018-11-03T09:36:57.395Z,987.36
2018-11-03T09:37:57.397Z,987.34
2018-11-03T09:38:57.449Z,987.35
2018-11-03T09:39:57.421Z,987.36
2018-11-03T09:40:57.391Z,987.34
2018-11-03T09:41:57.394Z,987.33
2018-11-03T09:42:57.405Z,987.37
2018-11-03T09:43:57.385Z,987.39
2018-11-03T09:44:57.486Z,987.37
2018-11-03T09:45:57.382Z,987.44
2018-11-03T09:46:57.384Z,987.41
2018-11-03T09:47:57.379Z,987.37
2018-11-03T09:48:57.378Z,987.43
2018-11-03T09:49:57.542Z,987.46
2018-11-03T09:50:57.413Z,987.45
2018-11-03T09:51:57.426Z,987.40
2018-11-03T09:52:57.370Z,987.40
2018-11-03T09:53:57.368Z,987.47
2018-11-03T09:54:57.399Z,987.50
2018-11-03T09:55:57.367Z,987.43
2018-11-03T09:56:57.372Z,987.43
2018-11-03T09:57:57.363Z,987.45
2018-11-03T09:58:57.362Z,987.39
2018-11-03T09:59:57.381Z,987.36
2018-11-03T10:00:57.360Z,987.32
2018-11-03T10:01:57.359Z,987.33
2018-11-03T10:02:57.355Z,987.32
2018-11-03T10:03:57.355Z,987.34
2018-11-03T10:04:58.310Z,987.33
2018-11-03T10:05:57.351Z,987.38
2018-11-03T10:06:57.352Z,987.40
2018-11-03T10:07:57.455Z,987.40
2018-11-03T10:08:57.347Z,987.37
2018-11-03T10:09:57.375Z,987.37
2018-11-03T10:10:57.369Z,987.38
2018-11-03T10:11:57.339Z,987.33
2018-11-03T10:12:57.391Z,987.34
2018-11-03T10:13:57.364Z,987.32
2018-11-03T10:14:57.339Z,987.28
2018-11-03T10:15:57.432Z,987.27
2018-11-03T10:16:57.427Z,987.25
2018-11-03T10:17:57.333Z,987.23
2018-11-03T10:18:57.364Z,987.22
2018-11-03T10:19:57.332Z,987.21
2018-11-03T10:20:57.334Z,987.24
2018-11-03T10:21:57.332Z,987.28
2018-11-03T10:22:57.408Z,987.29
2018-11-03T10:23:57.357Z,987.28
2018-11-03T10:24:57.327Z,987.30
2018-11-03T10:25:57.325Z,987.31
2018-11-03T10:26:57.325Z,987.30
2018-11-03T10:27:57.327Z,987.26
2018-11-03T10:28:57.352Z,987.23
2018-11-03T10:29:57.318Z,987.24
2018-11-03T10:30:57.321Z,987.19
2018-11-03T10:31:57.315Z,987.21
2018-11-03T10:32:57.320Z,987.17
2018-11-03T10:33:57.348Z,987.15
2018-11-03T10:34:57.321Z,987.12
2018-11-03T10:35:57.315Z,987.15
2018-11-03T10:36:57.347Z,987.10
2018-11-03T10:37:57.318Z,987.14
2018-11-03T10:38:57.317Z,987.11
2018-11-03T10:39:57.336Z,987.14
2018-11-03T10:40:57.314Z,987.14
2018-11-03T10:41:57.301Z,987.11
2018-11-03T10:42:57.313Z,987.16
2018-11-03T10:43:57.305Z,987.13
2018-11-03T10:44:57.345Z,987.09
2018-11-03T10:45:57.299Z,987.09
2018-11-03T10:46:57.294Z,987.07
2018-11-03T10:47:57.302Z,987.05
2018-11-03T10:48:57.832Z,987.07
2018-11-03T10:49:57.325Z,987.05
2018-11-03T10:50:57.298Z,987.11
2018-11-03T10:51:57.294Z,987.08
2018-11-03T10:52:57.297Z,987.08
2018-11-03T10:53:57.293Z,987.06
2018-11-03T10:54:57.320Z,987.06
2018-11-03T10:55:57.293Z,987.03
2018-11-03T10:56:57.285Z,987.08
2018-11-03T10:57:57.285Z,987.01
2018-11-03T10:58:57.322Z,987.01
2018-11-03T10:59:57.279Z,987.03
2018-11-03T11:00:57.277Z,987.03
2018-11-03T11:01:57.278Z,987.01
2018-11-03T11:02:57.304Z,987.00
2018-11-03T11:03:57.275Z,986.98
2018-11-03T11:04:57.328Z,987.02
2018-11-03T11:05:57.267Z,987.01
2018-11-03T11:06:57.270Z,986.98
2018-11-03T11:07:57.268Z,986.99
2018-11-03T11:08:57.266Z,987.00
2018-11-03T11:09:57.294Z,986.99
2018-11-03T11:10:57.261Z,987.02
2018-11-03T11:11:57.260Z,987.01
2018-11-03T11:12:57.265Z,987.00
2018-11-03T11:13:57.272Z,986.98
2018-11-03T11:14:57.296Z,986.96
2018-11-03T11:15:57.297Z,986.95
2018-11-03T11:16:57.297Z,986.92
2018-11-03T11:17:57.250Z,986.92
2018-11-03T11:18:57.247Z,986.92
2018-11-03T11:19:57.278Z,986.91
2018-11-03T11:20:57.242Z,986.90
2018-11-03T11:21:57.242Z,986.86
2018-11-03T11:22:57.247Z,986.88
2018-11-03T11:23:57.305Z,986.84
2018-11-03T11:24:57.473Z,986.81
2018-11-03T11:25:57.237Z,986.83
2018-11-03T11:26:57.234Z,986.85
2018-11-03T11:27:57.230Z,986.85
2018-11-03T11:28:57.232Z,986.83
2018-11-03T11:29:57.259Z,986.82
2018-11-03T11:30:57.223Z,986.76
2018-11-03T11:31:57.224Z,986.73
2018-11-03T11:32:57.899Z,986.77
2018-11-03T11:33:57.222Z,986.71
2018-11-03T11:34:57.239Z,986.69
2018-11-03T11:35:57.206Z,986.69
2018-11-03T11:36:57.211Z,986.70
2018-11-03T11:37:57.215Z,986.69
2018-11-03T11:38:57.211Z,986.65
2018-11-03T11:39:57.233Z,986.68
2018-11-03T11:40:57.205Z,986.73
2018-11-03T11:41:57.208Z,986.65
2018-11-03T11:42:57.234Z,986.65
2018-11-03T11:43:57.204Z,986.64
2018-11-03T11:44:57.230Z,986.62
2018-11-03T11:45:57.204Z,986.64
2018-11-03T11:46:57.189Z,986.63
2018-11-03T11:47:57.196Z,986.63
2018-11-03T11:48:57.195Z,986.68
2018-11-03T11:49:57.225Z,986.64
2018-11-03T11:50:57.184Z,986.68
2018-11-03T11:51:57.191Z,986.62
2018-11-03T11:52:57.184Z,986.59
2018-11-03T11:53:57.185Z,986.57
2018-11-03T11:54:57.287Z,986.58
2018-11-03T11:55:57.183Z,986.58
2018-11-03T11:56:57.177Z,986.52
2018-11-03T11:57:57.173Z,986.49
2018-11-03T11:58:57.171Z,986.51
2018-11-03T11:59:57.205Z,986.49
2018-11-03T12:00:57.165Z,986.47
2018-11-03T12:01:57.901Z,986.45
2018-11-03T12:02:57.165Z,986.46
2018-11-03T12:03:57.163Z,986.44
2018-11-03T12:04:57.211Z,986.47
2018-11-03T12:05:57.165Z,986.47
2018-11-03T12:06:57.157Z,986.45
2018-11-03T12:07:57.163Z,986.55
2018-11-03T12:08:57.152Z,986.48
2018-11-03T12:09:57.212Z,986.54
2018-11-03T12:10:57.148Z,986.51
2018-11-03T12:11:57.160Z,986.56
2018-11-03T12:12:57.173Z,986.53
2018-11-03T12:13:57.145Z,986.57
2018-11-03T12:14:57.175Z,986.56
2018-11-03T12:15:57.145Z,986.53
2018-11-03T12:16:57.142Z,986.52
2018-11-03T12:17:57.133Z,986.55
2018-11-03T12:18:57.132Z,986.56
2018-11-03T12:19:57.205Z,986.55
2018-11-03T12:20:57.135Z,986.61
2018-11-03T12:21:57.134Z,986.57
2018-11-03T12:22:57.125Z,986.57
2018-11-03T12:23:57.124Z,986.53
2018-11-03T12:24:57.147Z,986.52
2018-11-03T12:25:57.117Z,986.55
2018-11-03T12:26:57.114Z,986.49
2018-11-03T12:27:57.146Z,986.50
2018-11-03T12:28:57.110Z,986.49